sensor_id;sensor_type;location;lat;lon;timestamp;pressure;altitude;pressure_sealevel;temperature;humidity
62055;BME280;48653;51.742;-1.256;2023-03-18T00:03:47;99751.00;;;9.49;56.13
62055;BME280;48653;51.742;-1.256;2023-03-18T00:06:12;99748.16;;;11.43;55.72
62055;BME280;48653;51.742;-1.256;2023-03-18T00:08:35;99748.18;;;11.78;55.15
62055;BME280;48653;51.742;-1.256;2023-03-18T00:11:01;99750.09;;;11.63;56.48
62055;BME280;48653;51.742;-1.256;2023-03-18T00:13:26;99747.88;;;10.70;59.00
62055;BME280;48653;51.742;-1.256;2023-03-18T00:15:51;99745.81;;;10.85;58.59
62055;BME280;48653;51.742;-1.256;2023-03-18T00:18:16;99743.29;;;10.71;58.74
62055;BME280;48653;51.742;-1.256;2023-03-18T00:20:43;99744.79;;;11.31;57.91
62055;BME280;48653;51.742;-1.256;2023-03-18T00:23:08;99745.36;;;11.31;57.41
62055;BME280;48653;51.742;-1.256;2023-03-18T00:25:33;99742.99;;;11.28;57.34
62055;BME280;48653;51.742;-1.256;2023-03-18T00:27:58;99744.94;;;11.35;57.27
62055;BME280;48653;51.742;-1.256;2023-03-18T00:30:23;99746.23;;;11.35;56.94
62055;BME280;48653;51.742;-1.256;2023-03-18T00:32:49;99747.98;;;11.18;57.43
62055;BME280;48653;51.742;-1.256;2023-03-18T00:35:14;99750.93;;;11.34;56.95
62055;BME280;48653;51.742;-1.256;2023-03-18T00:37:40;99750.79;;;10.62;58.90
62055;BME280;48653;51.742;-1.256;2023-03-18T00:40:08;99749.32;;;11.49;56.51
62055;BME280;48653;51.742;-1.256;2023-03-18T00:42:32;99749.54;;;10.73;56.95
62055;BME280;48653;51.742;-1.256;2023-03-18T00:44:57;99749.66;;;11.62;56.43
62055;BME280;48653;51.742;-1.256;2023-03-18T00:47:22;99751.72;;;11.55;55.97
62055;BME280;48653;51.742;-1.256;2023-03-18T00:49:48;99751.61;;;10.79;57.83
62055;BME280;48653;51.742;-1.256;2023-03-18T00:52:13;99751.39;;;11.12;57.24
62055;BME280;48653;51.742;-1.256;2023-03-18T00:54:39;99753.24;;;11.31;56.69
62055;BME280;48653;51.742;-1.256;2023-03-18T00:57:04;99753.54;;;11.49;56.25
62055;BME280;48653;51.742;-1.256;2023-03-18T00:59:30;99757.06;;;11.05;57.22
62055;BME280;48653;51.742;-1.256;2023-03-18T01:01:55;99752.88;;;11.58;57.43
62055;BME280;48653;51.742;-1.256;2023-03-18T01:04:20;99752.87;;;10.79;59.17
62055;BME280;48653;51.742;-1.256;2023-03-18T01:06:45;99752.13;;;10.99;58.23
62055;BME280;48653;51.742;-1.256;2023-03-18T01:09:10;99751.04;;;11.20;57.58
62055;BME280;48653;51.742;-1.256;2023-03-18T01:11:36;99750.12;;;11.31;56.98
62055;BME280;48653;51.742;-1.256;2023-03-18T01:14:02;99743.75;;;11.05;57.42
62055;BME280;48653;51.742;-1.256;2023-03-18T01:16:27;99743.60;;;11.41;57.05
62055;BME280;48653;51.742;-1.256;2023-03-18T01:18:52;99744.64;;;11.33;56.45
62055;BME280;48653;51.742;-1.256;2023-03-18T01:21:18;99742.15;;;10.97;57.45
62055;BME280;48653;51.742;-1.256;2023-03-18T01:23:43;99739.26;;;11.87;55.50
62055;BME280;48653;51.742;-1.256;2023-03-18T01:26:09;99741.79;;;11.11;55.69
62055;BME280;48653;51.742;-1.256;2023-03-18T01:28:34;99733.50;;;11.89;55.54
62055;BME280;48653;51.742;-1.256;2023-03-18T01:30:59;99732.06;;;12.41;54.40
62055;BME280;48653;51.742;-1.256;2023-03-18T01:33:26;99729.88;;;11.95;55.44
62055;BME280;48653;51.742;-1.256;2023-03-18T01:35:53;99729.50;;;11.75;55.79
62055;BME280;48653;51.742;-1.256;2023-03-18T01:38:16;99728.84;;;11.14;57.38
62055;BME280;48653;51.742;-1.256;2023-03-18T01:40:42;99727.70;;;11.83;55.70
62055;BME280;48653;51.742;-1.256;2023-03-18T01:43:14;99723.44;;;11.79;56.01
62055;BME280;48653;51.742;-1.256;2023-03-18T01:45:33;99727.02;;;11.79;55.96
62055;BME280;48653;51.742;-1.256;2023-03-18T01:47:58;99722.58;;;11.57;56.40
62055;BME280;48653;51.742;-1.256;2023-03-18T01:50:27;99719.04;;;11.52;56.22
62055;BME280;48653;51.742;-1.256;2023-03-18T01:52:51;99719.16;;;11.08;57.88
62055;BME280;48653;51.742;-1.256;2023-03-18T01:55:16;99718.62;;;10.88;59.08
62055;BME280;48653;51.742;-1.256;2023-03-18T01:57:40;99712.67;;;11.31;57.24
62055;BME280;48653;51.742;-1.256;2023-03-18T02:00:06;99711.73;;;11.65;56.84
62055;BME280;48653;51.742;-1.256;2023-03-18T02:02:31;99712.34;;;11.84;56.26
62055;BME280;48653;51.742;-1.256;2023-03-18T02:05:00;99714.43;;;11.32;57.31
62055;BME280;48653;51.742;-1.256;2023-03-18T02:07:22;99708.69;;;11.31;56.84
62055;BME280;48653;51.742;-1.256;2023-03-18T02:09:47;99707.71;;;11.85;56.03
62055;BME280;48653;51.742;-1.256;2023-03-18T02:12:13;99703.63;;;11.87;56.63
62055;BME280;48653;51.742;-1.256;2023-03-18T02:14:36;99705.28;;;11.00;58.52
62055;BME280;48653;51.742;-1.256;2023-03-18T02:17:07;99704.58;;;11.20;57.72
62055;BME280;48653;51.742;-1.256;2023-03-18T02:19:38;99701.84;;;11.56;57.26
62055;BME280;48653;51.742;-1.256;2023-03-18T02:21:58;99703.28;;;11.37;58.33
62055;BME280;48653;51.742;-1.256;2023-03-18T02:24:26;99699.09;;;11.60;57.31
62055;BME280;48653;51.742;-1.256;2023-03-18T02:26:49;99697.39;;;11.48;56.82
62055;BME280;48653;51.742;-1.256;2023-03-18T02:29:10;99697.91;;;11.54;56.92
62055;BME280;48653;51.742;-1.256;2023-03-18T02:31:36;99703.54;;;11.59;56.13
62055;BME280;48653;51.742;-1.256;2023-03-18T02:34:00;99704.37;;;11.89;55.53
62055;BME280;48653;51.742;-1.256;2023-03-18T02:36:28;99703.65;;;12.12;55.62
62055;BME280;48653;51.742;-1.256;2023-03-18T02:38:51;99705.29;;;12.45;55.03
62055;BME280;48653;51.742;-1.256;2023-03-18T02:41:18;99702.01;;;11.91;55.39
62055;BME280;48653;51.742;-1.256;2023-03-18T02:43:41;99706.27;;;12.28;54.72
62055;BME280;48653;51.742;-1.256;2023-03-18T02:46:18;99705.63;;;11.88;55.05
62055;BME280;48653;51.742;-1.256;2023-03-18T02:48:36;99702.72;;;11.88;55.06
62055;BME280;48653;51.742;-1.256;2023-03-18T02:50:58;99704.08;;;11.58;55.59
62055;BME280;48653;51.742;-1.256;2023-03-18T02:53:24;99704.01;;;12.04;55.25
62055;BME280;48653;51.742;-1.256;2023-03-18T02:55:50;99708.38;;;11.61;56.67
62055;BME280;48653;51.742;-1.256;2023-03-18T02:58:15;99709.53;;;12.02;55.51
62055;BME280;48653;51.742;-1.256;2023-03-18T03:00:40;99711.54;;;11.98;55.45
62055;BME280;48653;51.742;-1.256;2023-03-18T03:03:06;99711.70;;;12.26;55.26
62055;BME280;48653;51.742;-1.256;2023-03-18T03:05:32;99708.66;;;12.07;55.75
62055;BME280;48653;51.742;-1.256;2023-03-18T03:07:57;99708.17;;;11.62;56.53
62055;BME280;48653;51.742;-1.256;2023-03-18T03:10:22;99708.22;;;12.50;55.09
62055;BME280;48653;51.742;-1.256;2023-03-18T03:12:48;99704.22;;;11.90;56.38
62055;BME280;48653;51.742;-1.256;2023-03-18T03:15:13;99704.27;;;11.64;55.91
62055;BME280;48653;51.742;-1.256;2023-03-18T03:17:39;99707.38;;;12.05;56.06
62055;BME280;48653;51.742;-1.256;2023-03-18T03:20:05;99705.42;;;12.13;55.15
62055;BME280;48653;51.742;-1.256;2023-03-18T03:22:30;99705.23;;;11.57;57.31
62055;BME280;48653;51.742;-1.256;2023-03-18T03:24:55;99708.21;;;11.62;57.69
62055;BME280;48653;51.742;-1.256;2023-03-18T03:27:20;99707.40;;;11.89;56.01
62055;BME280;48653;51.742;-1.256;2023-03-18T03:29:45;99708.03;;;11.82;55.55
62055;BME280;48653;51.742;-1.256;2023-03-18T03:32:12;99711.51;;;12.28;54.94
62055;BME280;48653;51.742;-1.256;2023-03-18T03:34:36;99712.55;;;12.22;54.71
62055;BME280;48653;51.742;-1.256;2023-03-18T03:37:01;99713.70;;;12.30;54.54
62055;BME280;48653;51.742;-1.256;2023-03-18T03:39:27;99718.74;;;12.24;54.67
62055;BME280;48653;51.742;-1.256;2023-03-18T03:41:52;99721.01;;;12.31;54.64
62055;BME280;48653;51.742;-1.256;2023-03-18T03:44:18;99723.64;;;12.07;54.92
62055;BME280;48653;51.742;-1.256;2023-03-18T03:46:44;99726.09;;;12.26;54.51
62055;BME280;48653;51.742;-1.256;2023-03-18T03:49:09;99727.08;;;12.20;54.82
62055;BME280;48653;51.742;-1.256;2023-03-18T03:51:35;99727.34;;;12.39;54.50
62055;BME280;48653;51.742;-1.256;2023-03-18T03:54:01;99729.13;;;12.55;54.01
62055;BME280;48653;51.742;-1.256;2023-03-18T03:56:26;99730.33;;;12.57;53.95
62055;BME280;48653;51.742;-1.256;2023-03-18T03:58:51;99728.67;;;11.91;55.43
62055;BME280;48653;51.742;-1.256;2023-03-18T04:01:17;99731.66;;;12.17;55.50
62055;BME280;48653;51.742;-1.256;2023-03-18T04:03:42;99729.30;;;11.98;55.48
62055;BME280;48653;51.742;-1.256;2023-03-18T04:06:07;99734.84;;;12.68;54.51
62055;BME280;48653;51.742;-1.256;2023-03-18T04:08:33;99733.05;;;12.36;54.47
62055;BME280;48653;51.742;-1.256;2023-03-18T04:10:58;99733.42;;;12.27;54.53
62055;BME280;48653;51.742;-1.256;2023-03-18T04:13:24;99733.15;;;12.45;54.30
62055;BME280;48653;51.742;-1.256;2023-03-18T04:15:50;99735.26;;;12.27;54.58
62055;BME280;48653;51.742;-1.256;2023-03-18T04:18:15;99733.10;;;12.17;54.86
62055;BME280;48653;51.742;-1.256;2023-03-18T04:20:41;99730.53;;;12.33;54.47
62055;BME280;48653;51.742;-1.256;2023-03-18T04:23:06;99728.01;;;12.40;54.42
62055;BME280;48653;51.742;-1.256;2023-03-18T04:25:31;99731.20;;;12.45;54.21
62055;BME280;48653;51.742;-1.256;2023-03-18T04:27:56;99728.31;;;12.03;55.18
62055;BME280;48653;51.742;-1.256;2023-03-18T04:30:22;99729.01;;;12.22;54.72
62055;BME280;48653;51.742;-1.256;2023-03-18T04:32:48;99727.86;;;12.58;55.11
62055;BME280;48653;51.742;-1.256;2023-03-18T04:35:13;99719.85;;;11.85;55.62
62055;BME280;48653;51.742;-1.256;2023-03-18T04:37:38;99719.23;;;11.93;55.97
62055;BME280;48653;51.742;-1.256;2023-03-18T04:40:05;99723.01;;;12.14;55.68
62055;BME280;48653;51.742;-1.256;2023-03-18T04:42:29;99724.17;;;11.91;56.70
62055;BME280;48653;51.742;-1.256;2023-03-18T04:44:55;99724.54;;;11.81;56.47
62055;BME280;48653;51.742;-1.256;2023-03-18T04:47:20;99724.72;;;11.51;57.10
62055;BME280;48653;51.742;-1.256;2023-03-18T04:49:45;99725.51;;;11.70;57.67
62055;BME280;48653;51.742;-1.256;2023-03-18T04:52:11;99728.88;;;11.80;58.04
62055;BME280;48653;51.742;-1.256;2023-03-18T04:54:36;99728.60;;;11.72;57.32
62055;BME280;48653;51.742;-1.256;2023-03-18T04:57:02;99734.20;;;11.31;57.58
62055;BME280;48653;51.742;-1.256;2023-03-18T04:59:27;99735.01;;;11.07;59.15
62055;BME280;48653;51.742;-1.256;2023-03-18T05:01:52;99734.33;;;11.04;59.42
62055;BME280;48653;51.742;-1.256;2023-03-18T05:04:18;99735.31;;;11.08;59.25
62055;BME280;48653;51.742;-1.256;2023-03-18T05:06:43;99734.51;;;11.68;58.41
62055;BME280;48653;51.742;-1.256;2023-03-18T05:09:08;99733.27;;;11.67;57.00
62055;BME280;48653;51.742;-1.256;2023-03-18T05:11:35;99731.23;;;11.74;56.39
62055;BME280;48653;51.742;-1.256;2023-03-18T05:14:00;99729.67;;;11.93;57.13
62055;BME280;48653;51.742;-1.256;2023-03-18T05:16:25;99728.76;;;12.05;56.12
62055;BME280;48653;51.742;-1.256;2023-03-18T05:18:50;99729.23;;;12.19;55.64
62055;BME280;48653;51.742;-1.256;2023-03-18T05:21:16;99725.16;;;11.78;56.14
62055;BME280;48653;51.742;-1.256;2023-03-18T05:23:41;99723.80;;;12.01;56.13
62055;BME280;48653;51.742;-1.256;2023-03-18T05:26:06;99728.62;;;12.11;55.61
62055;BME280;48653;51.742;-1.256;2023-03-18T05:28:32;99726.32;;;11.62;56.37
62055;BME280;48653;51.742;-1.256;2023-03-18T05:30:57;99728.66;;;12.11;55.99
62055;BME280;48653;51.742;-1.256;2023-03-18T05:33:23;99728.43;;;11.93;56.75
62055;BME280;48653;51.742;-1.256;2023-03-18T05:35:48;99731.44;;;11.93;56.37
62055;BME280;48653;51.742;-1.256;2023-03-18T05:38:14;99733.63;;;11.67;56.78
62055;BME280;48653;51.742;-1.256;2023-03-18T05:40:39;99737.37;;;11.82;56.52
62055;BME280;48653;51.742;-1.256;2023-03-18T05:43:04;99737.17;;;11.66;57.33
62055;BME280;48653;51.742;-1.256;2023-03-18T05:45:30;99737.27;;;12.12;56.50
62055;BME280;48653;51.742;-1.256;2023-03-18T05:47:55;99735.52;;;12.23;55.99
62055;BME280;48653;51.742;-1.256;2023-03-18T05:50:28;99735.81;;;12.15;55.65
62055;BME280;48653;51.742;-1.256;2023-03-18T05:52:45;99735.32;;;11.69;55.91
62055;BME280;48653;51.742;-1.256;2023-03-18T05:55:12;99731.93;;;12.04;55.76
62055;BME280;48653;51.742;-1.256;2023-03-18T05:57:35;99730.81;;;11.45;56.49
62055;BME280;48653;51.742;-1.256;2023-03-18T06:00:01;99732.03;;;12.12;55.58
62055;BME280;48653;51.742;-1.256;2023-03-18T06:02:26;99738.90;;;12.06;55.06
62055;BME280;48653;51.742;-1.256;2023-03-18T06:04:52;99740.77;;;12.13;54.79
62055;BME280;48653;51.742;-1.256;2023-03-18T06:07:17;99740.33;;;12.24;54.53
62055;BME280;48653;51.742;-1.256;2023-03-18T06:09:42;99739.91;;;12.60;53.76
62055;BME280;48653;51.742;-1.256;2023-03-18T06:12:08;99743.80;;;12.59;53.79
62055;BME280;48653;51.742;-1.256;2023-03-18T06:14:32;99745.22;;;12.66;53.32
62055;BME280;48653;51.742;-1.256;2023-03-18T06:16:57;99750.90;;;12.43;53.29
62055;BME280;48653;51.742;-1.256;2023-03-18T06:19:23;99755.66;;;12.50;53.56
62055;BME280;48653;51.742;-1.256;2023-03-18T06:21:48;99760.94;;;12.47;53.41
62055;BME280;48653;51.742;-1.256;2023-03-18T06:24:13;99759.38;;;12.87;52.69
62055;BME280;48653;51.742;-1.256;2023-03-18T06:26:38;99761.86;;;12.91;52.52
62055;BME280;48653;51.742;-1.256;2023-03-18T06:29:04;99762.98;;;12.79;52.56
62055;BME280;48653;51.742;-1.256;2023-03-18T06:31:29;99764.27;;;12.64;52.42
62055;BME280;48653;51.742;-1.256;2023-03-18T06:33:54;99767.12;;;12.86;52.48
62055;BME280;48653;51.742;-1.256;2023-03-18T06:36:19;99771.36;;;12.85;52.52
62055;BME280;48653;51.742;-1.256;2023-03-18T06:38:44;99779.11;;;12.91;52.47
62055;BME280;48653;51.742;-1.256;2023-03-18T06:41:10;99781.35;;;12.68;53.00
62055;BME280;48653;51.742;-1.256;2023-03-18T06:43:35;99786.69;;;12.34;53.17
62055;BME280;48653;51.742;-1.256;2023-03-18T06:46:00;99789.23;;;12.69;53.04
62055;BME280;48653;51.742;-1.256;2023-03-18T06:48:25;99793.53;;;12.95;53.07
62055;BME280;48653;51.742;-1.256;2023-03-18T06:50:50;99790.37;;;12.14;54.35
62055;BME280;48653;51.742;-1.256;2023-03-18T06:53:15;99794.97;;;12.29;53.71
62055;BME280;48653;51.742;-1.256;2023-03-18T06:55:40;99798.80;;;12.06;54.39
62055;BME280;48653;51.742;-1.256;2023-03-18T06:58:06;99799.25;;;12.17;54.08
62055;BME280;48653;51.742;-1.256;2023-03-18T07:00:32;99803.28;;;12.08;54.09
62055;BME280;48653;51.742;-1.256;2023-03-18T07:02:56;99804.23;;;11.85;54.11
62055;BME280;48653;51.742;-1.256;2023-03-18T07:05:22;99803.02;;;12.44;52.99
62055;BME280;48653;51.742;-1.256;2023-03-18T07:07:48;99808.86;;;12.47;52.98
62055;BME280;48653;51.742;-1.256;2023-03-18T07:10:18;99810.37;;;12.19;53.40
62055;BME280;48653;51.742;-1.256;2023-03-18T07:12:38;99815.92;;;12.44;53.46
62055;BME280;48653;51.742;-1.256;2023-03-18T07:15:04;99815.78;;;12.35;53.04
62055;BME280;48653;51.742;-1.256;2023-03-18T07:17:29;99816.86;;;12.48;52.90
62055;BME280;48653;51.742;-1.256;2023-03-18T07:19:54;99815.16;;;12.76;52.41
62055;BME280;48653;51.742;-1.256;2023-03-18T07:22:20;99815.06;;;12.48;52.75
62055;BME280;48653;51.742;-1.256;2023-03-18T07:24:44;99813.95;;;12.40;52.65
62055;BME280;48653;51.742;-1.256;2023-03-18T07:27:11;99811.30;;;11.52;53.73
62055;BME280;48653;51.742;-1.256;2023-03-18T07:29:35;99809.32;;;11.96;53.30
62055;BME280;48653;51.742;-1.256;2023-03-18T07:32:01;99812.05;;;12.09;53.17
62055;BME280;48653;51.742;-1.256;2023-03-18T07:34:27;99818.01;;;12.19;52.89
62055;BME280;48653;51.742;-1.256;2023-03-18T07:36:51;99818.76;;;11.79;53.75
62055;BME280;48653;51.742;-1.256;2023-03-18T07:39:17;99816.75;;;12.13;53.27
62055;BME280;48653;51.742;-1.256;2023-03-18T07:41:42;99814.76;;;11.29;54.99
62055;BME280;48653;51.742;-1.256;2023-03-18T07:44:08;99812.50;;;11.81;53.96
62055;BME280;48653;51.742;-1.256;2023-03-18T07:46:33;99809.75;;;11.87;54.00
62055;BME280;48653;51.742;-1.256;2023-03-18T07:48:58;99807.92;;;12.39;53.79
62055;BME280;48653;51.742;-1.256;2023-03-18T07:51:24;99807.50;;;12.02;53.62
62055;BME280;48653;51.742;-1.256;2023-03-18T07:53:49;99811.59;;;12.47;53.22
62055;BME280;48653;51.742;-1.256;2023-03-18T07:56:14;99815.56;;;12.41;52.82
62055;BME280;48653;51.742;-1.256;2023-03-18T07:58:39;99815.87;;;12.32;52.62
62055;BME280;48653;51.742;-1.256;2023-03-18T08:01:04;99814.41;;;12.64;52.41
62055;BME280;48653;51.742;-1.256;2023-03-18T08:03:29;99815.40;;;12.68;52.32
62055;BME280;48653;51.742;-1.256;2023-03-18T08:05:55;99818.03;;;12.84;52.07
62055;BME280;48653;51.742;-1.256;2023-03-18T08:08:20;99816.28;;;13.36;51.42
62055;BME280;48653;51.742;-1.256;2023-03-18T08:10:45;99817.31;;;13.78;50.26
62055;BME280;48653;51.742;-1.256;2023-03-18T08:13:11;99822.48;;;13.05;50.76
62055;BME280;48653;51.742;-1.256;2023-03-18T08:15:36;99826.29;;;13.07;51.24
62055;BME280;48653;51.742;-1.256;2023-03-18T08:18:02;99822.81;;;13.31;50.71
62055;BME280;48653;51.742;-1.256;2023-03-18T08:20:27;99825.06;;;13.21;50.71
62055;BME280;48653;51.742;-1.256;2023-03-18T08:22:53;99826.11;;;13.39;51.07
62055;BME280;48653;51.742;-1.256;2023-03-18T08:25:18;99825.36;;;12.87;51.06
62055;BME280;48653;51.742;-1.256;2023-03-18T08:27:43;99826.47;;;13.34;51.13
62055;BME280;48653;51.742;-1.256;2023-03-18T08:30:11;99832.31;;;13.13;50.94
62055;BME280;48653;51.742;-1.256;2023-03-18T08:32:35;99833.96;;;13.03;50.54
62055;BME280;48653;51.742;-1.256;2023-03-18T08:35:00;99834.49;;;13.21;51.29
62055;BME280;48653;51.742;-1.256;2023-03-18T08:37:26;99834.08;;;13.00;51.42
62055;BME280;48653;51.742;-1.256;2023-03-18T08:39:50;99835.15;;;13.02;51.07
62055;BME280;48653;51.742;-1.256;2023-03-18T08:42:15;99835.00;;;12.52;51.59
62055;BME280;48653;51.742;-1.256;2023-03-18T08:44:41;99835.43;;;12.70;52.17
62055;BME280;48653;51.742;-1.256;2023-03-18T08:47:06;99840.89;;;13.12;51.34
62055;BME280;48653;51.742;-1.256;2023-03-18T08:49:31;99836.48;;;12.95;51.46
62055;BME280;48653;51.742;-1.256;2023-03-18T08:51:56;99832.06;;;13.12;51.71
62055;BME280;48653;51.742;-1.256;2023-03-18T08:54:21;99829.41;;;12.63;52.64
62055;BME280;48653;51.742;-1.256;2023-03-18T08:56:47;99827.06;;;12.81;52.56
62055;BME280;48653;51.742;-1.256;2023-03-18T08:59:12;99833.24;;;12.82;52.25
62055;BME280;48653;51.742;-1.256;2023-03-18T09:01:37;99836.50;;;12.07;54.04
62055;BME280;48653;51.742;-1.256;2023-03-18T09:04:02;99840.35;;;12.45;54.07
62055;BME280;48653;51.742;-1.256;2023-03-18T09:06:28;99841.84;;;12.23;54.07
62055;BME280;48653;51.742;-1.256;2023-03-18T09:08:52;99843.79;;;11.94;54.12
62055;BME280;48653;51.742;-1.256;2023-03-18T09:11:18;99851.10;;;12.75;53.75
62055;BME280;48653;51.742;-1.256;2023-03-18T09:13:43;99854.42;;;12.77;53.10
62055;BME280;48653;51.742;-1.256;2023-03-18T09:16:08;99858.50;;;12.81;52.12
62055;BME280;48653;51.742;-1.256;2023-03-18T09:18:34;99862.89;;;13.30;52.24
62055;BME280;48653;51.742;-1.256;2023-03-18T09:20:59;99861.37;;;13.06;52.33
62055;BME280;48653;51.742;-1.256;2023-03-18T09:23:25;99861.40;;;13.25;51.77
62055;BME280;48653;51.742;-1.256;2023-03-18T09:25:50;99863.10;;;13.24;50.62
62055;BME280;48653;51.742;-1.256;2023-03-18T09:28:15;99861.01;;;12.39;52.61
62055;BME280;48653;51.742;-1.256;2023-03-18T09:30:42;99862.39;;;13.21;51.71
62055;BME280;48653;51.742;-1.256;2023-03-18T09:33:07;99862.56;;;13.07;51.79
62055;BME280;48653;51.742;-1.256;2023-03-18T09:35:32;99864.65;;;13.40;50.86
62055;BME280;48653;51.742;-1.256;2023-03-18T09:37:57;99864.29;;;13.09;51.31
62055;BME280;48653;51.742;-1.256;2023-03-18T09:40:26;99862.40;;;13.34;51.39
62055;BME280;48653;51.742;-1.256;2023-03-18T09:42:57;99863.53;;;13.53;50.99
62055;BME280;48653;51.742;-1.256;2023-03-18T09:45:20;99860.50;;;13.46;51.08
62055;BME280;48653;51.742;-1.256;2023-03-18T09:47:58;99862.22;;;13.37;50.92
62055;BME280;48653;51.742;-1.256;2023-03-18T09:50:14;99865.60;;;13.67;50.40
62055;BME280;48653;51.742;-1.256;2023-03-18T09:52:34;99865.38;;;13.27;50.42
62055;BME280;48653;51.742;-1.256;2023-03-18T09:55:00;99869.96;;;13.60;49.54
62055;BME280;48653;51.742;-1.256;2023-03-18T09:57:23;99871.95;;;13.57;49.67
62055;BME280;48653;51.742;-1.256;2023-03-18T09:59:49;99875.48;;;13.69;49.39
62055;BME280;48653;51.742;-1.256;2023-03-18T10:02:19;99875.56;;;13.84;49.32
62055;BME280;48653;51.742;-1.256;2023-03-18T10:04:41;99874.76;;;14.14;49.27
62055;BME280;48653;51.742;-1.256;2023-03-18T10:07:07;99875.82;;;14.12;48.99
62055;BME280;48653;51.742;-1.256;2023-03-18T10:09:29;99878.93;;;14.26;49.03
62055;BME280;48653;51.742;-1.256;2023-03-18T10:11:58;99879.72;;;14.02;49.35
62055;BME280;48653;51.742;-1.256;2023-03-18T10:14:27;99882.32;;;14.13;49.16
62055;BME280;48653;51.742;-1.256;2023-03-18T10:16:53;99884.43;;;14.12;49.66
62055;BME280;48653;51.742;-1.256;2023-03-18T10:19:09;99888.08;;;13.68;49.17
62055;BME280;48653;51.742;-1.256;2023-03-18T10:21:39;99886.79;;;13.61;49.68
62055;BME280;48653;51.742;-1.256;2023-03-18T10:24:05;99885.23;;;13.61;49.99
62055;BME280;48653;51.742;-1.256;2023-03-18T10:26:29;99885.15;;;13.84;49.72
62055;BME280;48653;51.742;-1.256;2023-03-18T10:29:00;99887.61;;;13.79;49.33
62055;BME280;48653;51.742;-1.256;2023-03-18T10:31:25;99887.17;;;13.71;50.17
62055;BME280;48653;51.742;-1.256;2023-03-18T10:33:46;99889.21;;;13.39;50.32
62055;BME280;48653;51.742;-1.256;2023-03-18T10:36:11;99889.72;;;13.40;50.88
62055;BME280;48653;51.742;-1.256;2023-03-18T10:38:34;99892.68;;;13.12;50.87
62055;BME280;48653;51.742;-1.256;2023-03-18T10:40:58;99897.56;;;13.47;51.08
62055;BME280;48653;51.742;-1.256;2023-03-18T10:43:26;99895.09;;;13.09;51.59
62055;BME280;48653;51.742;-1.256;2023-03-18T10:45:53;99899.50;;;12.88;52.50
62055;BME280;48653;51.742;-1.256;2023-03-18T10:48:16;99899.00;;;12.69;52.86
62055;BME280;48653;51.742;-1.256;2023-03-18T10:50:41;99898.03;;;13.33;51.62
62055;BME280;48653;51.742;-1.256;2023-03-18T10:53:11;99895.53;;;13.02;52.24
62055;BME280;48653;51.742;-1.256;2023-03-18T10:55:31;99899.33;;;13.27;51.08
62055;BME280;48653;51.742;-1.256;2023-03-18T10:57:53;99897.17;;;13.08;50.76
62055;BME280;48653;51.742;-1.256;2023-03-18T11:00:26;99899.15;;;13.20;50.87
62055;BME280;48653;51.742;-1.256;2023-03-18T11:02:44;99899.98;;;12.76;51.92
62055;BME280;48653;51.742;-1.256;2023-03-18T11:05:18;99900.38;;;13.20;51.49
62055;BME280;48653;51.742;-1.256;2023-03-18T11:10:10;99901.20;;;13.05;50.29
62055;BME280;48653;51.742;-1.256;2023-03-18T11:12:27;99900.49;;;12.76;50.63
62055;BME280;48653;51.742;-1.256;2023-03-18T11:14:51;99901.09;;;12.19;51.87
62055;BME280;48653;51.742;-1.256;2023-03-18T11:17:21;99907.61;;;13.46;50.24
62055;BME280;48653;51.742;-1.256;2023-03-18T11:19:45;99906.88;;;13.81;49.93
62055;BME280;48653;51.742;-1.256;2023-03-18T11:22:18;99907.42;;;14.06;48.85
62055;BME280;48653;51.742;-1.256;2023-03-18T11:24:32;99905.59;;;13.96;49.00
62055;BME280;48653;51.742;-1.256;2023-03-18T11:26:57;99903.66;;;13.73;48.24
62055;BME280;48653;51.742;-1.256;2023-03-18T11:29:25;99903.62;;;13.48;49.19
62055;BME280;48653;51.742;-1.256;2023-03-18T11:31:50;99905.46;;;14.16;48.73
62055;BME280;48653;51.742;-1.256;2023-03-18T11:36:37;99907.36;;;14.43;48.31
62055;BME280;48653;51.742;-1.256;2023-03-18T11:39:05;99904.89;;;14.10;48.41
62055;BME280;48653;51.742;-1.256;2023-03-18T11:41:28;99908.44;;;13.73;49.31
62055;BME280;48653;51.742;-1.256;2023-03-18T11:43:55;99908.98;;;14.01;48.16
62055;BME280;48653;51.742;-1.256;2023-03-18T11:46:21;99908.77;;;14.71;48.43
62055;BME280;48653;51.742;-1.256;2023-03-18T11:48:43;99911.40;;;13.60;48.50
62055;BME280;48653;51.742;-1.256;2023-03-18T11:51:17;99911.21;;;13.98;48.40
62055;BME280;48653;51.742;-1.256;2023-03-18T11:53:44;99911.63;;;13.22;50.36
62055;BME280;48653;51.742;-1.256;2023-03-18T11:56:01;99913.62;;;12.78;50.31
62055;BME280;48653;51.742;-1.256;2023-03-18T11:58:42;99917.50;;;13.44;50.01
62055;BME280;48653;51.742;-1.256;2023-03-18T12:00:52;99919.28;;;13.07;49.94
62055;BME280;48653;51.742;-1.256;2023-03-18T12:05:49;99911.39;;;14.03;49.08
62055;BME280;48653;51.742;-1.256;2023-03-18T12:08:11;99913.27;;;14.17;49.52
62055;BME280;48653;51.742;-1.256;2023-03-18T12:10:32;99914.27;;;13.81;48.97
62055;BME280;48653;51.742;-1.256;2023-03-18T12:13:05;99915.16;;;13.77;49.10
62055;BME280;48653;51.742;-1.256;2023-03-18T12:15:26;99914.29;;;14.17;48.57
62055;BME280;48653;51.742;-1.256;2023-03-18T12:20:22;99912.86;;;14.62;47.47
62055;BME280;48653;51.742;-1.256;2023-03-18T12:22:47;99909.85;;;14.84;46.92
62055;BME280;48653;51.742;-1.256;2023-03-18T12:25:11;99911.82;;;14.76;46.86
62055;BME280;48653;51.742;-1.256;2023-03-18T12:27:33;99907.30;;;14.92;46.67
62055;BME280;48653;51.742;-1.256;2023-03-18T12:30:04;99906.85;;;15.07;46.35
62055;BME280;48653;51.742;-1.256;2023-03-18T12:32:25;99909.26;;;14.49;46.59
62055;BME280;48653;51.742;-1.256;2023-03-18T12:34:51;99912.81;;;14.81;46.36
62055;BME280;48653;51.742;-1.256;2023-03-18T12:37:15;99911.97;;;14.50;45.96
62055;BME280;48653;51.742;-1.256;2023-03-18T12:42:01;99915.25;;;15.06;47.58
62055;BME280;48653;51.742;-1.256;2023-03-18T12:44:29;99916.01;;;14.16;47.38
62055;BME280;48653;51.742;-1.256;2023-03-18T12:46:48;99916.04;;;14.10;48.44
62055;BME280;48653;51.742;-1.256;2023-03-18T12:49:14;99914.18;;;14.58;47.55
62055;BME280;48653;51.742;-1.256;2023-03-18T12:51:42;99917.42;;;14.35;47.73
62055;BME280;48653;51.742;-1.256;2023-03-18T12:54:07;99919.95;;;14.16;47.94